Meteo Giornale » Osservazioni meteo Arabia Saudita » Gassim
ore: 23:00 - Osservazioni Meteo Gassim
Lat. 26° 18' N Lon. 43° 46' E Alt. 648 metri s.l.m.
37 °C
Sereno
Temp. 24 Ore
30 °C
43 °C
Est
20.3 Km/h
Dew point 2 °C
Umidità 11 %
Visibilità 10 Km
Il sole sorge alle ore 05:44
Il sole tramonta alle ore 18:25
| Data e Ora | Cielo e Fenomeni | T °C | DP °C | Um. % | Pres. hPa | Vis. km | Vento km/h | |
|---|---|---|---|---|---|---|---|---|
| Ieri h: 23:00 | Sereno | 37 | 2 | 11 | 1008 | 10 | E 20.3 | |
| Ieri h: 22:00 | Sereno | 38 | 2 | 10 | 1009 | 10 | E 20.3 | |
| Ieri h: 21:00 | Sereno | 39 | 2 | 10 | 1009 | 10 | NE 13 | |
| Ieri h: 20:00 | Sereno | 39 | 2 | 10 | 1008 | 10 | N/NE 11.1 | |
| Ieri h: 19:00 | Sereno | 40 | 1 | 8 | 1008 | 10 | N 9.3 | |
| Ieri h: 18:00 | Sereno | 42 | 1 | 8 | 1007 | 10 | N 11.1 | |
| Ieri h: 17:00 | Sereno | 43 | 2 | 8 | 1007 | 10 | N 3.7 | |
| Ieri h: 16:00 | Sereno | 43 | 2 | 8 | 1007 | 10 | N 0 | |
| Ieri h: 15:00 | Sereno | 43 | 1 | 7 | 1008 | 10 | N 11.1 | |
| Ieri h: 14:00 | Sereno | 43 | 2 | 8 | 1008 | 10 | N 0 | |
| Ieri h: 13:00 | Sereno | 42 | 3 | 9 | 1009 | 10 | NE 11.1 | |
| Ieri h: 12:00 | Sereno | 41 | 3 | 9 | 1010 | 10 | E 13 | |
| Ieri h: 11:00 | Sereno | 40 | 4 | 11 | 1010 | 10 | E/NE 14.8 | |
| Ieri h: 10:00 | Sereno | 38 | 5 | 13 | 1011 | 10 | E 18.5 | |
| Ieri h: 09:00 | Sereno | 36 | 3 | 12 | 1011 | 10 | E 20.3 | |
| Ieri h: 08:00 | Poco Nuvoloso | 34 | 4 | 15 | 1011 | 10 | N 7.4 | |
| Ieri h: 07:00 | Poco Nuvoloso | 30 | 4 | 19 | 1010 | 10 | N 5.5 | |
| Ieri h: 06:00 | Poco Nuvoloso | 30 | 4 | 19 | 1010 | 10 | N/NE 7.4 | |
| Ieri h: 05:00 | Sereno | 31 | 4 | 18 | 1010 | 10 | N/NE 11.1 | |
| Ieri h: 04:00 | Sereno | 31 | 3 | 16 | 1009 | 10 | NO 9.3 | |
| Ieri h: 03:00 | Sereno | 35 | 3 | 13 | 1008 | 10 | NE 16.7 | |
| Ieri h: 02:00 | Sereno | 35 | 3 | 13 | 1008 | 10 | NE 16.7 | |
| Ieri h: 01:00 | Sereno | 35 | 2 | 12 | 1008 | 10 | NE 18.5 | |



